sensor_id;sensor_type;location;lat;lon;timestamp;temperature;humidity
66576;SHT31;53428;47.686;16.584;2024-01-15T00:01:07;-3.38;94.68
66576;SHT31;53428;47.686;16.584;2024-01-15T00:06:07;-3.27;94.02
66576;SHT31;53428;47.686;16.584;2024-01-15T00:11:06;-3.20;94.27
66576;SHT31;53428;47.686;16.584;2024-01-15T00:16:05;-3.11;93.71
66576;SHT31;53428;47.686;16.584;2024-01-15T00:21:04;-3.21;93.62
66576;SHT31;53428;47.686;16.584;2024-01-15T00:26:04;-3.10;93.26
66576;SHT31;53428;47.686;16.584;2024-01-15T00:31:04;-3.16;93.48
66576;SHT31;53428;47.686;16.584;2024-01-15T00:36:04;-3.17;93.91
66576;SHT31;53428;47.686;16.584;2024-01-15T00:41:04;-2.92;93.22
66576;SHT31;53428;47.686;16.584;2024-01-15T00:46:03;-2.96;93.08
66576;SHT31;53428;47.686;16.584;2024-01-15T00:51:04;-2.86;92.99
66576;SHT31;53428;47.686;16.584;2024-01-15T00:56:03;-2.78;92.64
66576;SHT31;53428;47.686;16.584;2024-01-15T01:01:03;-2.83;92.43
66576;SHT31;53428;47.686;16.584;2024-01-15T01:06:03;-2.72;91.99
66576;SHT31;53428;47.686;16.584;2024-01-15T01:11:02;-2.68;91.62
66576;SHT31;53428;47.686;16.584;2024-01-15T01:16:01;-2.66;91.94
66576;SHT31;53428;47.686;16.584;2024-01-15T01:21:01;-2.78;91.82
66576;SHT31;53428;47.686;16.584;2024-01-15T01:26:00;-3.06;92.08
66576;SHT31;53428;47.686;16.584;2024-01-15T01:30:59;-2.69;91.99
66576;SHT31;53428;47.686;16.584;2024-01-15T01:35:59;-1.94;89.39
66576;SHT31;53428;47.686;16.584;2024-01-15T01:40:58;-1.92;89.27
66576;SHT31;53428;47.686;16.584;2024-01-15T01:46:00;-1.79;89.35
66576;SHT31;53428;47.686;16.584;2024-01-15T01:51:03;-1.79;89.32
66576;SHT31;53428;47.686;16.584;2024-01-15T01:56:03;-1.90;90.17
66576;SHT31;53428;47.686;16.584;2024-01-15T02:01:03;-1.62;89.01
66576;SHT31;53428;47.686;16.584;2024-01-15T02:06:02;-1.73;89.13
66576;SHT31;53428;47.686;16.584;2024-01-15T02:11:02;-1.83;89.50
66576;SHT31;53428;47.686;16.584;2024-01-15T02:16:01;-1.72;89.36
66576;SHT31;53428;47.686;16.584;2024-01-15T02:21:01;-1.62;89.06
66576;SHT31;53428;47.686;16.584;2024-01-15T02:26:01;-1.66;89.04
66576;SHT31;53428;47.686;16.584;2024-01-15T02:31:00;-1.75;89.37
66576;SHT31;53428;47.686;16.584;2024-01-15T02:36:00;-1.87;89.76
66576;SHT31;53428;47.686;16.584;2024-01-15T02:40:59;-2.00;89.88
66576;SHT31;53428;47.686;16.584;2024-01-15T02:45:59;-1.89;89.77
66576;SHT31;53428;47.686;16.584;2024-01-15T02:50:58;-1.79;89.31
66576;SHT31;53428;47.686;16.584;2024-01-15T02:55:57;-1.79;89.13
66576;SHT31;53428;47.686;16.584;2024-01-15T03:00:57;-1.83;89.92
66576;SHT31;53428;47.686;16.584;2024-01-15T03:05:56;-1.92;90.36
66576;SHT31;53428;47.686;16.584;2024-01-15T03:10:56;-2.02;90.70
66576;SHT31;53428;47.686;16.584;2024-01-15T03:15:55;-1.94;90.85
66576;SHT31;53428;47.686;16.584;2024-01-15T03:20:54;-2.03;90.89
66576;SHT31;53428;47.686;16.584;2024-01-15T03:25:53;-2.06;91.03
66576;SHT31;53428;47.686;16.584;2024-01-15T03:30:53;-2.11;91.28
66576;SHT31;53428;47.686;16.584;2024-01-15T03:35:52;-2.04;91.25
66576;SHT31;53428;47.686;16.584;2024-01-15T03:40:52;-1.99;90.79
66576;SHT31;53428;47.686;16.584;2024-01-15T03:45:51;-2.19;91.42
66576;SHT31;53428;47.686;16.584;2024-01-15T03:50:50;-2.29;91.59
66576;SHT31;53428;47.686;16.584;2024-01-15T03:55:50;-2.27;91.46
66576;SHT31;53428;47.686;16.584;2024-01-15T04:00:49;-2.24;91.85
66576;SHT31;53428;47.686;16.584;2024-01-15T04:05:48;-2.11;91.82
66576;SHT31;53428;47.686;16.584;2024-01-15T04:10:48;-2.11;91.71
66576;SHT31;53428;47.686;16.584;2024-01-15T04:15:47;-2.27;91.95
66576;SHT31;53428;47.686;16.584;2024-01-15T04:20:46;-2.23;92.26
66576;SHT31;53428;47.686;16.584;2024-01-15T04:25:45;-2.10;92.18
66576;SHT31;53428;47.686;16.584;2024-01-15T04:30:45;-2.17;92.22
66576;SHT31;53428;47.686;16.584;2024-01-15T04:35:44;-2.20;92.61
66576;SHT31;53428;47.686;16.584;2024-01-15T04:40:43;-2.36;92.64
66576;SHT31;53428;47.686;16.584;2024-01-15T04:45:42;-2.24;92.68
66576;SHT31;53428;47.686;16.584;2024-01-15T04:50:42;-2.36;92.75
66576;SHT31;53428;47.686;16.584;2024-01-15T04:55:41;-2.38;92.90
66576;SHT31;53428;47.686;16.584;2024-01-15T05:00:40;-2.45;93.09
66576;SHT31;53428;47.686;16.584;2024-01-15T05:05:39;-2.27;92.88
66576;SHT31;53428;47.686;16.584;2024-01-15T05:10:39;-2.45;93.61
66576;SHT31;53428;47.686;16.584;2024-01-15T05:15:38;-2.34;93.64
66576;SHT31;53428;47.686;16.584;2024-01-15T05:20:37;-2.62;93.76
66576;SHT31;53428;47.686;16.584;2024-01-15T05:25:37;-2.88;94.09
66576;SHT31;53428;47.686;16.584;2024-01-15T05:30:36;-2.76;94.67
66576;SHT31;53428;47.686;16.584;2024-01-15T05:35:35;-2.64;94.29
66576;SHT31;53428;47.686;16.584;2024-01-15T05:40:35;-2.68;94.53
66576;SHT31;53428;47.686;16.584;2024-01-15T05:45:35;-2.78;95.07
66576;SHT31;53428;47.686;16.584;2024-01-15T05:50:37;-0.83;88.83
66576;SHT31;53428;47.686;16.584;2024-01-15T05:55:37;0.09;84.49
66576;SHT31;53428;47.686;16.584;2024-01-15T06:00:38;-0.15;83.88
66576;SHT31;53428;47.686;16.584;2024-01-15T06:05:37;-0.42;84.64
66576;SHT31;53428;47.686;16.584;2024-01-15T06:10:36;-0.39;84.70
66576;SHT31;53428;47.686;16.584;2024-01-15T06:15:36;0.17;82.44
66576;SHT31;53428;47.686;16.584;2024-01-15T06:20:36;-0.59;83.70
66576;SHT31;53428;47.686;16.584;2024-01-15T06:25:36;-0.80;84.80
66576;SHT31;53428;47.686;16.584;2024-01-15T06:30:36;-0.51;84.58
66576;SHT31;53428;47.686;16.584;2024-01-15T06:35:35;-0.04;84.05
66576;SHT31;53428;47.686;16.584;2024-01-15T06:40:35;0.65;82.13
66576;SHT31;53428;47.686;16.584;2024-01-15T06:45:35;1.13;80.98
66576;SHT31;53428;47.686;16.584;2024-01-15T06:50:34;1.28;80.34
66576;SHT31;53428;47.686;16.584;2024-01-15T06:55:33;1.35;80.05
66576;SHT31;53428;47.686;16.584;2024-01-15T07:00:33;1.59;79.04
66576;SHT31;53428;47.686;16.584;2024-01-15T07:05:32;1.37;79.90
66576;SHT31;53428;47.686;16.584;2024-01-15T07:10:31;1.59;78.32
66576;SHT31;53428;47.686;16.584;2024-01-15T07:15:31;1.83;77.54
66576;SHT31;53428;47.686;16.584;2024-01-15T07:20:30;1.98;76.92
66576;SHT31;53428;47.686;16.584;2024-01-15T07:25:29;2.06;76.49
66576;SHT31;53428;47.686;16.584;2024-01-15T07:30:28;2.37;75.09
66576;SHT31;53428;47.686;16.584;2024-01-15T07:35:28;2.60;74.41
66576;SHT31;53428;47.686;16.584;2024-01-15T07:40:27;3.36;71.44
66576;SHT31;53428;47.686;16.584;2024-01-15T07:45:26;3.91;68.58
66576;SHT31;53428;47.686;16.584;2024-01-15T07:50:25;4.25;67.08
66576;SHT31;53428;47.686;16.584;2024-01-15T07:55:24;4.40;66.12
66576;SHT31;53428;47.686;16.584;2024-01-15T08:00:24;4.77;64.09
66576;SHT31;53428;47.686;16.584;2024-01-15T08:05:23;4.94;63.83
66576;SHT31;53428;47.686;16.584;2024-01-15T08:10:22;5.11;63.18
66576;SHT31;53428;47.686;16.584;2024-01-15T08:15:22;4.99;62.90
66576;SHT31;53428;47.686;16.584;2024-01-15T08:20:21;4.88;62.94
66576;SHT31;53428;47.686;16.584;2024-01-15T08:25:20;4.70;63.71
66576;SHT31;53428;47.686;16.584;2024-01-15T08:30:20;4.52;64.45
66576;SHT31;53428;47.686;16.584;2024-01-15T08:35:20;4.56;63.95
66576;SHT31;53428;47.686;16.584;2024-01-15T08:40:21;4.61;63.15
66576;SHT31;53428;47.686;16.584;2024-01-15T08:45:21;4.65;62.80
66576;SHT31;53428;47.686;16.584;2024-01-15T08:50:20;4.68;62.93
66576;SHT31;53428;47.686;16.584;2024-01-15T08:55:20;4.54;63.72
66576;SHT31;53428;47.686;16.584;2024-01-15T09:00:21;4.44;63.75
66576;SHT31;53428;47.686;16.584;2024-01-15T09:05:20;4.40;64.61
66576;SHT31;53428;47.686;16.584;2024-01-15T09:10:20;4.28;65.04
66576;SHT31;53428;47.686;16.584;2024-01-15T09:15:19;4.19;65.32
66576;SHT31;53428;47.686;16.584;2024-01-15T09:20:19;4.19;65.07
66576;SHT31;53428;47.686;16.584;2024-01-15T09:25:19;4.09;65.28
66576;SHT31;53428;47.686;16.584;2024-01-15T09:30:18;4.06;65.66
66576;SHT31;53428;47.686;16.584;2024-01-15T09:35:17;3.88;65.97
66576;SHT31;53428;47.686;16.584;2024-01-15T09:40:17;3.92;66.35
66576;SHT31;53428;47.686;16.584;2024-01-15T09:45:19;4.19;65.50
66576;SHT31;53428;47.686;16.584;2024-01-15T09:50:19;4.44;64.41
66576;SHT31;53428;47.686;16.584;2024-01-15T09:55:19;4.63;64.67
66576;SHT31;53428;47.686;16.584;2024-01-15T10:00:19;4.68;64.99
66576;SHT31;53428;47.686;16.584;2024-01-15T10:05:18;4.42;64.73
66576;SHT31;53428;47.686;16.584;2024-01-15T10:10:18;4.25;65.37
66576;SHT31;53428;47.686;16.584;2024-01-15T10:15:17;4.09;65.63
66576;SHT31;53428;47.686;16.584;2024-01-15T10:20:17;4.01;66.05
66576;SHT31;53428;47.686;16.584;2024-01-15T10:25:19;3.96;65.56
66576;SHT31;53428;47.686;16.584;2024-01-15T10:30:24;3.89;65.76
66576;SHT31;53428;47.686;16.584;2024-01-15T10:35:29;4.13;65.67
66576;SHT31;53428;47.686;16.584;2024-01-15T10:40:29;4.30;65.40
66576;SHT31;53428;47.686;16.584;2024-01-15T10:45:28;4.49;64.60
66576;SHT31;53428;47.686;16.584;2024-01-15T10:50:29;4.77;64.01
66576;SHT31;53428;47.686;16.584;2024-01-15T10:55:30;5.01;63.79
66576;SHT31;53428;47.686;16.584;2024-01-15T11:00:31;5.07;63.65
66576;SHT31;53428;47.686;16.584;2024-01-15T11:05:39;5.25;63.93
66576;SHT31;53428;47.686;16.584;2024-01-15T11:10:48;5.46;63.94
66576;SHT31;53428;47.686;16.584;2024-01-15T11:16:01;5.56;63.53
66576;SHT31;53428;47.686;16.584;2024-01-15T11:42:03;6.02;63.99
66576;SHT31;53428;47.686;16.584;2024-01-15T11:47:10;6.09;64.33
66576;SHT31;53428;47.686;16.584;2024-01-15T11:52:11;6.07;63.96
66576;SHT31;53428;47.686;16.584;2024-01-15T11:57:25;7.56;61.84
66576;SHT31;53428;47.686;16.584;2024-01-15T12:02:27;7.76;61.20
66576;SHT31;53428;47.686;16.584;2024-01-15T12:07:26;7.03;61.18
66576;SHT31;53428;47.686;16.584;2024-01-15T12:17:45;7.46;62.51
66576;SHT31;53428;47.686;16.584;2024-01-15T12:22:45;8.04;62.04
66576;SHT31;53428;47.686;16.584;2024-01-15T12:27:45;7.55;63.43
66576;SHT31;53428;47.686;16.584;2024-01-15T12:32:45;5.84;66.04
66576;SHT31;53428;47.686;16.584;2024-01-15T12:37:47;6.69;64.59
66576;SHT31;53428;47.686;16.584;2024-01-15T12:42:46;7.55;63.72
66576;SHT31;53428;47.686;16.584;2024-01-15T12:47:46;6.93;64.51
66576;SHT31;53428;47.686;16.584;2024-01-15T12:52:45;7.51;62.58
66576;SHT31;53428;47.686;16.584;2024-01-15T12:57:45;7.45;63.17
66576;SHT31;53428;47.686;16.584;2024-01-15T13:02:44;6.75;65.88
66576;SHT31;53428;47.686;16.584;2024-01-15T13:07:44;5.83;65.50
66576;SHT31;53428;47.686;16.584;2024-01-15T13:12:44;6.86;64.23
66576;SHT31;53428;47.686;16.584;2024-01-15T13:17:44;6.02;66.17
66576;SHT31;53428;47.686;16.584;2024-01-15T13:22:43;6.69;64.52
66576;SHT31;53428;47.686;16.584;2024-01-15T13:27:43;4.71;69.14
66576;SHT31;53428;47.686;16.584;2024-01-15T13:32:42;4.28;69.38
66576;SHT31;53428;47.686;16.584;2024-01-15T13:37:42;3.87;70.14
66576;SHT31;53428;47.686;16.584;2024-01-15T13:42:41;3.75;69.71
66576;SHT31;53428;47.686;16.584;2024-01-15T13:47:41;3.44;69.93
66576;SHT31;53428;47.686;16.584;2024-01-15T13:52:42;3.41;70.30
66576;SHT31;53428;47.686;16.584;2024-01-15T13:57:42;4.28;67.64
66576;SHT31;53428;47.686;16.584;2024-01-15T14:02:41;3.37;69.98
66576;SHT31;53428;47.686;16.584;2024-01-15T14:07:40;3.18;70.84
66576;SHT31;53428;47.686;16.584;2024-01-15T14:12:40;2.91;71.49
66576;SHT31;53428;47.686;16.584;2024-01-15T14:17:40;2.79;71.56
66576;SHT31;53428;47.686;16.584;2024-01-15T14:22:40;2.72;71.68
66576;SHT31;53428;47.686;16.584;2024-01-15T14:27:39;2.62;71.91
66576;SHT31;53428;47.686;16.584;2024-01-15T14:32:39;2.48;72.15
66576;SHT31;53428;47.686;16.584;2024-01-15T14:37:40;2.48;72.04
66576;SHT31;53428;47.686;16.584;2024-01-15T14:42:40;2.43;71.97
66576;SHT31;53428;47.686;16.584;2024-01-15T14:47:40;2.37;72.12
66576;SHT31;53428;47.686;16.584;2024-01-15T14:52:40;2.40;71.96
66576;SHT31;53428;47.686;16.584;2024-01-15T14:57:41;2.50;71.71
66576;SHT31;53428;47.686;16.584;2024-01-15T15:02:40;2.58;71.13
66576;SHT31;53428;47.686;16.584;2024-01-15T15:07:40;2.61;71.16
66576;SHT31;53428;47.686;16.584;2024-01-15T15:12:39;2.60;71.04
66576;SHT31;53428;47.686;16.584;2024-01-15T15:17:39;2.66;70.89
66576;SHT31;53428;47.686;16.584;2024-01-15T15:22:38;2.61;71.07
66576;SHT31;53428;47.686;16.584;2024-01-15T15:27:38;2.55;71.16
66576;SHT31;53428;47.686;16.584;2024-01-15T15:32:39;2.66;70.79
66576;SHT31;53428;47.686;16.584;2024-01-15T15:37:38;2.58;70.98
66576;SHT31;53428;47.686;16.584;2024-01-15T15:42:37;2.54;71.11
66576;SHT31;53428;47.686;16.584;2024-01-15T15:47:36;2.55;71.31
66576;SHT31;53428;47.686;16.584;2024-01-15T15:52:36;2.60;71.13
66576;SHT31;53428;47.686;16.584;2024-01-15T15:57:35;2.64;71.02
66576;SHT31;53428;47.686;16.584;2024-01-15T16:02:34;2.57;71.20
66576;SHT31;53428;47.686;16.584;2024-01-15T16:07:35;2.65;71.06
66576;SHT31;53428;47.686;16.584;2024-01-15T16:12:34;2.68;71.23
66576;SHT31;53428;47.686;16.584;2024-01-15T16:17:34;2.66;71.34
66576;SHT31;53428;47.686;16.584;2024-01-15T16:22:33;2.57;70.94
66576;SHT31;53428;47.686;16.584;2024-01-15T16:27:32;2.60;71.35
66576;SHT31;53428;47.686;16.584;2024-01-15T16:32:33;2.48;72.14
66576;SHT31;53428;47.686;16.584;2024-01-15T16:37:33;2.44;72.09
66576;SHT31;53428;47.686;16.584;2024-01-15T16:42:35;2.45;71.52
66576;SHT31;53428;47.686;16.584;2024-01-15T16:47:34;2.65;70.70
66576;SHT31;53428;47.686;16.584;2024-01-15T16:52:34;2.72;70.41
66576;SHT31;53428;47.686;16.584;2024-01-15T16:57:33;2.77;70.19
66576;SHT31;53428;47.686;16.584;2024-01-15T17:02:32;2.81;70.40
66576;SHT31;53428;47.686;16.584;2024-01-15T17:07:32;2.52;71.24
66576;SHT31;53428;47.686;16.584;2024-01-15T17:12:31;2.43;71.67
66576;SHT31;53428;47.686;16.584;2024-01-15T17:17:30;2.71;69.52
66576;SHT31;53428;47.686;16.584;2024-01-15T17:22:30;2.79;68.94
66576;SHT31;53428;47.686;16.584;2024-01-15T17:27:30;2.91;68.26
66576;SHT31;53428;47.686;16.584;2024-01-15T17:32:29;2.87;68.26
66576;SHT31;53428;47.686;16.584;2024-01-15T17:37:28;2.66;68.91
66576;SHT31;53428;47.686;16.584;2024-01-15T17:42:27;2.48;70.49
66576;SHT31;53428;47.686;16.584;2024-01-15T17:47:26;2.10;72.43
66576;SHT31;53428;47.686;16.584;2024-01-15T17:52:26;2.13;71.25
66576;SHT31;53428;47.686;16.584;2024-01-15T17:57:26;2.14;70.87
66576;SHT31;53428;47.686;16.584;2024-01-15T18:02:25;1.99;70.42
66576;SHT31;53428;47.686;16.584;2024-01-15T18:07:24;1.87;70.31
66576;SHT31;53428;47.686;16.584;2024-01-15T18:12:25;1.78;72.46
66576;SHT31;53428;47.686;16.584;2024-01-15T18:17:24;1.51;74.31
66576;SHT31;53428;47.686;16.584;2024-01-15T18:22:25;1.31;74.69
66576;SHT31;53428;47.686;16.584;2024-01-15T18:27:24;1.20;73.95
66576;SHT31;53428;47.686;16.584;2024-01-15T18:32:27;1.16;73.46
66576;SHT31;53428;47.686;16.584;2024-01-15T18:37:26;1.83;70.36
66576;SHT31;53428;47.686;16.584;2024-01-15T18:42:27;2.17;68.29
66576;SHT31;53428;47.686;16.584;2024-01-15T18:47:27;2.23;68.38
66576;SHT31;53428;47.686;16.584;2024-01-15T18:52:26;1.89;69.34
66576;SHT31;53428;47.686;16.584;2024-01-15T18:57:25;1.69;69.72
66576;SHT31;53428;47.686;16.584;2024-01-15T19:02:24;2.01;69.58
66576;SHT31;53428;47.686;16.584;2024-01-15T19:07:23;2.41;68.97
66576;SHT31;53428;47.686;16.584;2024-01-15T19:12:23;2.50;69.05
66576;SHT31;53428;47.686;16.584;2024-01-15T19:17:24;2.65;69.49
66576;SHT31;53428;47.686;16.584;2024-01-15T19:22:24;2.57;70.19
66576;SHT31;53428;47.686;16.584;2024-01-15T19:27:23;2.52;70.83
66576;SHT31;53428;47.686;16.584;2024-01-15T19:32:24;2.48;71.39
66576;SHT31;53428;47.686;16.584;2024-01-15T19:37:27;2.44;72.12
66576;SHT31;53428;47.686;16.584;2024-01-15T19:42:27;2.44;72.57
66576;SHT31;53428;47.686;16.584;2024-01-15T19:47:26;2.31;73.14
66576;SHT31;53428;47.686;16.584;2024-01-15T19:52:26;2.27;73.57
66576;SHT31;53428;47.686;16.584;2024-01-15T19:57:25;2.10;74.28
66576;SHT31;53428;47.686;16.584;2024-01-15T20:02:25;1.89;75.15
66576;SHT31;53428;47.686;16.584;2024-01-15T20:07:24;1.91;74.94
66576;SHT31;53428;47.686;16.584;2024-01-15T20:12:23;1.87;74.93
66576;SHT31;53428;47.686;16.584;2024-01-15T20:17:22;2.01;74.13
66576;SHT31;53428;47.686;16.584;2024-01-15T20:22:21;2.26;73.10
66576;SHT31;53428;47.686;16.584;2024-01-15T20:27:21;2.40;73.70
66576;SHT31;53428;47.686;16.584;2024-01-15T20:32:20;2.51;72.55
66576;SHT31;53428;47.686;16.584;2024-01-15T20:37:20;2.52;72.48
66576;SHT31;53428;47.686;16.584;2024-01-15T20:42:19;2.34;72.96
66576;SHT31;53428;47.686;16.584;2024-01-15T20:47:18;2.20;73.89
66576;SHT31;53428;47.686;16.584;2024-01-15T20:52:18;1.98;74.53
66576;SHT31;53428;47.686;16.584;2024-01-15T20:57:17;1.99;73.88
66576;SHT31;53428;47.686;16.584;2024-01-15T21:02:16;2.02;73.36
66576;SHT31;53428;47.686;16.584;2024-01-15T21:07:16;2.07;73.01
66576;SHT31;53428;47.686;16.584;2024-01-15T21:12:15;2.06;72.54
66576;SHT31;53428;47.686;16.584;2024-01-15T21:17:14;2.26;71.60
66576;SHT31;53428;47.686;16.584;2024-01-15T21:22:14;2.40;70.56
66576;SHT31;53428;47.686;16.584;2024-01-15T21:27:14;2.60;69.49
66576;SHT31;53428;47.686;16.584;2024-01-15T21:32:15;2.64;69.07
66576;SHT31;53428;47.686;16.584;2024-01-15T21:37:15;2.66;68.90
66576;SHT31;53428;47.686;16.584;2024-01-15T21:42:15;2.81;68.09
66576;SHT31;53428;47.686;16.584;2024-01-15T21:47:14;2.74;68.38
66576;SHT31;53428;47.686;16.584;2024-01-15T21:52:13;2.65;68.38
66576;SHT31;53428;47.686;16.584;2024-01-15T21:57:13;2.71;68.58
66576;SHT31;53428;47.686;16.584;2024-01-15T22:02:12;2.78;68.43
66576;SHT31;53428;47.686;16.584;2024-01-15T22:07:12;2.65;68.72
66576;SHT31;53428;47.686;16.584;2024-01-15T22:12:11;2.62;68.88
66576;SHT31;53428;47.686;16.584;2024-01-15T22:17:10;2.65;69.06
66576;SHT31;53428;47.686;16.584;2024-01-15T22:22:10;2.57;69.31
66576;SHT31;53428;47.686;16.584;2024-01-15T22:27:10;2.44;69.85
66576;SHT31;53428;47.686;16.584;2024-01-15T22:32:09;2.48;70.08
66576;SHT31;53428;47.686;16.584;2024-01-15T22:37:08;2.41;70.82
66576;SHT31;53428;47.686;16.584;2024-01-15T22:42:07;2.36;71.28
66576;SHT31;53428;47.686;16.584;2024-01-15T22:47:07;2.30;71.83
66576;SHT31;53428;47.686;16.584;2024-01-15T22:52:07;2.17;72.28
66576;SHT31;53428;47.686;16.584;2024-01-15T22:57:06;2.07;72.66
66576;SHT31;53428;47.686;16.584;2024-01-15T23:02:06;2.03;72.86
66576;SHT31;53428;47.686;16.584;2024-01-15T23:07:05;1.89;73.11
66576;SHT31;53428;47.686;16.584;2024-01-15T23:12:05;1.85;73.01
66576;SHT31;53428;47.686;16.584;2024-01-15T23:17:06;1.69;73.15
66576;SHT31;53428;47.686;16.584;2024-01-15T23:22:05;1.72;73.32
66576;SHT31;53428;47.686;16.584;2024-01-15T23:27:05;1.71;73.64
66576;SHT31;53428;47.686;16.584;2024-01-15T23:32:04;1.58;74.63
66576;SHT31;53428;47.686;16.584;2024-01-15T23:37:04;1.66;75.19
66576;SHT31;53428;47.686;16.584;2024-01-15T23:42:05;1.59;75.53
66576;SHT31;53428;47.686;16.584;2024-01-15T23:47:04;1.62;75.35
66576;SHT31;53428;47.686;16.584;2024-01-15T23:52:04;1.59;75.00
66576;SHT31;53428;47.686;16.584;2024-01-15T23:57:05;1.68;74.06
